Monday, May 02, 2016
08:15 UTC
  |  Log In   |  Register Free
Airport Search:

Livermore Municipal Airport
(KLVK)

FAA data valid effective Mar 31 2016 - May 26 2016 (unless otherwise noted).

 
 
 
 
 
 
 
 
 
 
 
 
 
 
Current Aviation Weather for KLVK

Weather Summary


The most recent METAR observation for LVK was updated at: 12:53 UTC
METAR for KLVK is not available. Closest METAR is for KHWD
KLVK  (most recent observation was updatred at 20:75 UTC)
020753Z AUTO 00000KT 10SM CLR 14/07 A2995 RMK AO2 SLP139 T01390067 402830083

KHWD  (14.5 nm NE)   (most recent observation was updated at 20:75 UTC)
020754Z 01003KT 8SM CLR 13/10 A2997 RMK AO2 SLP156 T01330100 402830128 $

KOAK  (19.1 nm SE)   (most recent observation was updated at 20:75 UTC)
020753Z 34005KT 10SM FEW200 13/11 A2997 RMK AO2 SLP146 T01330106 402670128 PNO

TAF for KLVK is not available.
KLVK
020533Z 0206/0306 VRB03KT P6SM SKC FM022000 23015KT P6SM SCT200 FM030400 24008KT P6SM BKN200

KOAK  (19.1 nm SE)   (most recent observation was updatred at 20:53 UTC)
020533Z 0206/0312 32005KT P6SM SKC FM020800 VRB03KT P6SM SCT020 FM021000 30005KT P6SM BKN015 FM021700 25006KT P6SM FEW020 SCT200 FM022000 27012KT P6SM FEW015 SCT200 FM030400 27006KT P6SM BKN150


KSJC  (20.5 nm NE)   (most recent observation was updatred at 20:53 UTC)
020533Z 0206/0306 16005KT P6SM SKC FM021700 VRB03KT P6SM SCT200 FM022000 31012KT P6SM SCT200 FM030400 31005KT P6SM BKN200
GlobalAir.com is loading additional information.
 Current Weather at LVK
60.0 F° (15.6 C°)

North winds at 0.0 mph
Pressure:
29.94 in
Humidity:
56%
Wind:
North at 0.0 mph
Dew Point:
44.1 F° (6.7 C°)
Visibility:
10.00 mi
LVK NOAA Radar




Find All Airport Services Find A Hotel Find A Rental Car Find A Golf Course Find A Restaurant $100 Hamburger



Airport Weather Forecast for KLVK

Translated METAR for KLVK (0753 UTC)
METAR:
KLVK 020753Z AUTO 00000KT 10SM CLR 14/07 A2995 RMK AO2 SLP139 T01390067 402830083
Conditions at:
KLVK (Livermore Muni, CA) observed 0753 UTC 02 May 2016
Temperature:
14°C (57.2°F)
Dewpoint:
7°C (44.6°F) [RH = 62.7]
Pressure:
29.95 inches Hg (1014.2 mb)
pressure at sea level is 139 in Hg
Winds:
from the N (000 degrees) at 0 mph (0 knots: 0 m/s)
Visibility:
10 mile(s)
Ceiling:
at least 12,000 feet AGL
Clouds:
Clear below 12,000 feet AGL
Remarks:
site is un-manned
site is automated and HAS a precipitation sensor

Translated TAF for KLVK (Livermore Muni, CA) (0533 UTC)
TAF text:
KLVK 020533Z 0206/0306 VRB03KT P6SM SKC
Forecast period:
Monday May 02 2016 06:00 UTC - Tuesday May 03 2016 06:00 UTC
Forecast type:
FROM: standard forecast or significant change
Winds:
variable wind direction at 3.5 mph (3 knots: 1.5 m/s)
Visibility:
6 or more mile(s) (9.7+ km)
Ceiling:
at least 12,000 feet AGL
Clouds:
Clear Skies
Weather:
no significant weather observed at this time
TAF text:
FM022000 23015KT P6SM SCT200
Forecast period:
Monday May 02 2016 20:00 UTC - Tuesday May 03 2016 04:00 UTC
Forecast type:
FROM: standard forecast or significant change
Winds:
from the SW (230 degrees) at 17.3 mph (15 knots: 7.7 m/s)
Visibility:
6 or more mile(s) (9.7+ km)
Ceiling:
at least 12,000 feet AGL
Clouds:
Scattered Clouds at 20,000 feet AGL
Weather:
no significant weather observed at this time
TAF text:
FM030400 24008KT P6SM BKN200
Forecast period:
Tuesday May 03 2016 04:00 UTC - Tuesday May 03 2016 06:00 UTC
Forecast type:
FROM: standard forecast or significant change
Winds:
from the WSW (240 degrees) at 9.2 mph (8 knots: 4.1 m/s)
Visibility:
6 or more mile(s) (9.7+ km)
Ceiling:
20,000 feet AGL
Clouds:
Broken Cloud Cover at 20,000 feet AGL
Weather:
no significant weather observed at this time
FBO's on the Field
FBO Company Facility Photos Services Transportation Aviation Fuel Prices: Prices include tax
Catering Weather Repair Courtesy Rental Type 100LL JetA JetA+ MOGAS 8087
 
Five Rivers Aviation

Currently rated 5 by 1 person
FS:Epic
Last Updated: Apr-28
Login to update fuel prices
SS:
Contact Five Rivers AviationMore FBO Information
 
Add another FBO Facility Photos Catering Weather Repair Courtesy Rental Type 100LL JetA JetA+ MOGAS 8087
Services Transportation Aviation Fuel Prices: Prices include tax


model-print
model-print
model-print
model-print